sensor_id;sensor_type;location;lat;lon;timestamp;P1;durP1;ratioP1;P2;durP2;ratioP2
7887;SDS011;3989;48.810;9.208;2023-11-21T00:00:35;6.33;;;2.67;;
7887;SDS011;3989;48.810;9.208;2023-11-21T00:03:02;4.43;;;2.43;;
7887;SDS011;3989;48.810;9.208;2023-11-21T00:05:29;6.83;;;2.60;;
7887;SDS011;3989;48.810;9.208;2023-11-21T00:07:56;7.23;;;3.13;;
7887;SDS011;3989;48.810;9.208;2023-11-21T00:10:22;4.17;;;2.27;;
7887;SDS011;3989;48.810;9.208;2023-11-21T00:12:50;5.60;;;2.57;;
7887;SDS011;3989;48.810;9.208;2023-11-21T00:15:20;4.33;;;2.30;;
7887;SDS011;3989;48.810;9.208;2023-11-21T00:17:46;7.10;;;2.00;;
7887;SDS011;3989;48.810;9.208;2023-11-21T00:20:13;5.90;;;2.50;;
7887;SDS011;3989;48.810;9.208;2023-11-21T00:22:40;3.87;;;1.97;;
7887;SDS011;3989;48.810;9.208;2023-11-21T00:25:07;4.20;;;1.87;;
7887;SDS011;3989;48.810;9.208;2023-11-21T00:27:34;3.50;;;1.63;;
7887;SDS011;3989;48.810;9.208;2023-11-21T01:00:11;5.17;;;2.10;;
7887;SDS011;3989;48.810;9.208;2023-11-21T01:02:39;4.50;;;1.90;;
7887;SDS011;3989;48.810;9.208;2023-11-21T01:05:06;4.53;;;1.80;;
7887;SDS011;3989;48.810;9.208;2023-11-21T01:07:33;4.10;;;1.90;;
7887;SDS011;3989;48.810;9.208;2023-11-21T01:10:01;4.13;;;1.90;;
7887;SDS011;3989;48.810;9.208;2023-11-21T01:12:30;3.83;;;1.93;;
7887;SDS011;3989;48.810;9.208;2023-11-21T01:14:57;5.40;;;1.97;;
7887;SDS011;3989;48.810;9.208;2023-11-21T01:17:26;3.27;;;1.83;;
7887;SDS011;3989;48.810;9.208;2023-11-21T01:19:55;5.87;;;2.37;;
7887;SDS011;3989;48.810;9.208;2023-11-21T01:22:22;4.00;;;2.00;;
7887;SDS011;3989;48.810;9.208;2023-11-21T01:24:51;3.40;;;1.97;;
7887;SDS011;3989;48.810;9.208;2023-11-21T01:27:18;4.30;;;1.80;;
7887;SDS011;3989;48.810;9.208;2023-11-21T01:29:44;2.63;;;1.60;;
7887;SDS011;3989;48.810;9.208;2023-11-21T01:32:11;1.50;;;1.40;;
7887;SDS011;3989;48.810;9.208;2023-11-21T01:34:39;1.90;;;1.70;;
7887;SDS011;3989;48.810;9.208;2023-11-21T01:37:05;3.23;;;1.87;;
7887;SDS011;3989;48.810;9.208;2023-11-21T01:39:32;3.50;;;1.83;;
7887;SDS011;3989;48.810;9.208;2023-11-21T01:41:59;5.50;;;1.83;;
7887;SDS011;3989;48.810;9.208;2023-11-21T01:44:26;3.80;;;2.27;;
7887;SDS011;3989;48.810;9.208;2023-11-21T01:46:52;2.90;;;1.73;;
7887;SDS011;3989;48.810;9.208;2023-11-21T01:49:19;6.20;;;1.80;;
7887;SDS011;3989;48.810;9.208;2023-11-21T01:51:48;4.27;;;1.40;;
7887;SDS011;3989;48.810;9.208;2023-11-21T01:54:15;2.77;;;1.33;;
7887;SDS011;3989;48.810;9.208;2023-11-21T01:56:43;4.10;;;1.90;;
7887;SDS011;3989;48.810;9.208;2023-11-21T01:59:11;3.50;;;2.40;;
7887;SDS011;3989;48.810;9.208;2023-11-21T02:01:44;3.23;;;1.57;;
7887;SDS011;3989;48.810;9.208;2023-11-21T02:04:11;2.50;;;1.60;;
7887;SDS011;3989;48.810;9.208;2023-11-21T02:06:38;3.13;;;1.80;;
7887;SDS011;3989;48.810;9.208;2023-11-21T02:09:06;2.93;;;1.90;;
7887;SDS011;3989;48.810;9.208;2023-11-21T02:11:34;2.70;;;1.60;;
7887;SDS011;3989;48.810;9.208;2023-11-21T02:14:00;2.37;;;1.60;;
7887;SDS011;3989;48.810;9.208;2023-11-21T02:16:28;3.53;;;1.77;;
7887;SDS011;3989;48.810;9.208;2023-11-21T02:18:56;4.17;;;1.40;;
7887;SDS011;3989;48.810;9.208;2023-11-21T02:21:24;1.53;;;1.40;;
7887;SDS011;3989;48.810;9.208;2023-11-21T02:23:53;2.20;;;1.30;;
7887;SDS011;3989;48.810;9.208;2023-11-21T02:26:20;1.90;;;1.40;;
7887;SDS011;3989;48.810;9.208;2023-11-21T02:28:47;2.57;;;1.30;;
7887;SDS011;3989;48.810;9.208;2023-11-21T02:31:13;5.87;;;1.73;;
7887;SDS011;3989;48.810;9.208;2023-11-21T02:33:41;1.90;;;1.40;;
7887;SDS011;3989;48.810;9.208;2023-11-21T02:36:09;1.50;;;1.40;;
7887;SDS011;3989;48.810;9.208;2023-11-21T02:41:58;3.10;;;1.40;;
7887;SDS011;3989;48.810;9.208;2023-11-21T02:47:47;2.67;;;1.87;;
7887;SDS011;3989;48.810;9.208;2023-11-21T02:50:14;2.70;;;1.63;;
7887;SDS011;3989;48.810;9.208;2023-11-21T02:52:40;1.33;;;1.20;;
7887;SDS011;3989;48.810;9.208;2023-11-21T02:55:07;2.37;;;1.23;;
7887;SDS011;3989;48.810;9.208;2023-11-21T02:57:35;2.37;;;1.20;;
7887;SDS011;3989;48.810;9.208;2023-11-21T03:00:02;3.37;;;1.27;;
7887;SDS011;3989;48.810;9.208;2023-11-21T03:02:32;3.97;;;1.17;;
7887;SDS011;3989;48.810;9.208;2023-11-21T03:05:04;1.57;;;1.40;;
7887;SDS011;3989;48.810;9.208;2023-11-21T03:07:31;5.37;;;1.47;;
7887;SDS011;3989;48.810;9.208;2023-11-21T03:09:57;1.67;;;1.20;;
7887;SDS011;3989;48.810;9.208;2023-11-21T03:12:24;1.93;;;1.30;;
7887;SDS011;3989;48.810;9.208;2023-11-21T03:14:52;2.27;;;1.20;;
7887;SDS011;3989;48.810;9.208;2023-11-21T03:17:19;1.00;;;0.90;;
7887;SDS011;3989;48.810;9.208;2023-11-21T03:19:46;1.83;;;1.20;;
7887;SDS011;3989;48.810;9.208;2023-11-21T03:22:12;2.83;;;1.07;;
7887;SDS011;3989;48.810;9.208;2023-11-21T03:24:39;1.47;;;1.30;;
7887;SDS011;3989;48.810;9.208;2023-11-21T03:27:06;3.43;;;1.40;;
7887;SDS011;3989;48.810;9.208;2023-11-21T03:29:33;1.77;;;1.17;;
7887;SDS011;3989;48.810;9.208;2023-11-21T03:32:01;1.00;;;0.87;;
7887;SDS011;3989;48.810;9.208;2023-11-21T03:34:28;1.50;;;1.07;;
7887;SDS011;3989;48.810;9.208;2023-11-21T03:36:54;1.17;;;1.07;;
7887;SDS011;3989;48.810;9.208;2023-11-21T03:39:21;0.90;;;0.90;;
7887;SDS011;3989;48.810;9.208;2023-11-21T03:41:48;1.60;;;0.83;;
7887;SDS011;3989;48.810;9.208;2023-11-21T03:44:17;3.07;;;1.10;;
7887;SDS011;3989;48.810;9.208;2023-11-21T03:46:43;1.03;;;0.93;;
7887;SDS011;3989;48.810;9.208;2023-11-21T03:49:11;3.97;;;1.13;;
7887;SDS011;3989;48.810;9.208;2023-11-21T03:51:38;2.13;;;1.20;;
7887;SDS011;3989;48.810;9.208;2023-11-21T03:54:05;1.80;;;1.10;;
7887;SDS011;3989;48.810;9.208;2023-11-21T03:56:32;1.20;;;1.10;;
7887;SDS011;3989;48.810;9.208;2023-11-21T03:58:58;2.90;;;1.00;;
7887;SDS011;3989;48.810;9.208;2023-11-21T04:01:25;0.90;;;0.80;;
7887;SDS011;3989;48.810;9.208;2023-11-21T04:03:51;0.90;;;0.90;;
7887;SDS011;3989;48.810;9.208;2023-11-21T04:06:20;1.00;;;1.00;;
7887;SDS011;3989;48.810;9.208;2023-11-21T04:08:46;1.83;;;0.93;;
7887;SDS011;3989;48.810;9.208;2023-11-21T04:11:13;1.07;;;0.97;;
7887;SDS011;3989;48.810;9.208;2023-11-21T04:13:41;2.00;;;1.00;;
7887;SDS011;3989;48.810;9.208;2023-11-21T04:16:08;0.80;;;0.80;;
7887;SDS011;3989;48.810;9.208;2023-11-21T04:18:35;0.80;;;0.80;;
7887;SDS011;3989;48.810;9.208;2023-11-21T04:21:02;4.03;;;1.07;;
7887;SDS011;3989;48.810;9.208;2023-11-21T04:23:30;0.63;;;0.60;;
7887;SDS011;3989;48.810;9.208;2023-11-21T04:25:57;1.90;;;1.10;;
7887;SDS011;3989;48.810;9.208;2023-11-21T04:28:24;2.43;;;1.07;;
7887;SDS011;3989;48.810;9.208;2023-11-21T04:30:51;1.13;;;0.80;;
7887;SDS011;3989;48.810;9.208;2023-11-21T04:33:18;1.70;;;0.90;;
7887;SDS011;3989;48.810;9.208;2023-11-21T04:35:44;1.30;;;0.80;;
7887;SDS011;3989;48.810;9.208;2023-11-21T04:38:11;1.00;;;1.00;;
7887;SDS011;3989;48.810;9.208;2023-11-21T04:40:39;1.57;;;0.83;;
7887;SDS011;3989;48.810;9.208;2023-11-21T04:43:06;1.30;;;0.80;;
7887;SDS011;3989;48.810;9.208;2023-11-21T04:45:33;1.50;;;1.00;;
7887;SDS011;3989;48.810;9.208;2023-11-21T04:47:59;2.07;;;0.97;;
7887;SDS011;3989;48.810;9.208;2023-11-21T04:50:26;1.43;;;0.87;;
7887;SDS011;3989;48.810;9.208;2023-11-21T04:52:52;2.00;;;1.03;;
7887;SDS011;3989;48.810;9.208;2023-11-21T04:55:19;0.80;;;0.80;;
7887;SDS011;3989;48.810;9.208;2023-11-21T04:57:47;1.23;;;1.13;;
7887;SDS011;3989;48.810;9.208;2023-11-21T05:00:14;1.33;;;0.80;;
7887;SDS011;3989;48.810;9.208;2023-11-21T05:02:41;3.63;;;1.13;;
7887;SDS011;3989;48.810;9.208;2023-11-21T05:05:09;1.77;;;0.93;;
7887;SDS011;3989;48.810;9.208;2023-11-21T05:07:36;2.97;;;0.87;;
7887;SDS011;3989;48.810;9.208;2023-11-21T05:10:03;2.30;;;1.00;;
7887;SDS011;3989;48.810;9.208;2023-11-21T05:12:35;2.63;;;1.37;;
7887;SDS011;3989;48.810;9.208;2023-11-21T05:15:05;1.23;;;1.10;;
7887;SDS011;3989;48.810;9.208;2023-11-21T05:17:34;3.47;;;1.10;;
7887;SDS011;3989;48.810;9.208;2023-11-21T05:20:01;3.23;;;1.20;;
7887;SDS011;3989;48.810;9.208;2023-11-21T05:22:29;2.23;;;1.20;;
7887;SDS011;3989;48.810;9.208;2023-11-21T05:24:55;2.23;;;1.30;;
7887;SDS011;3989;48.810;9.208;2023-11-21T05:27:24;1.10;;;1.10;;
7887;SDS011;3989;48.810;9.208;2023-11-21T05:29:50;1.13;;;1.13;;
7887;SDS011;3989;48.810;9.208;2023-11-21T05:32:19;1.00;;;1.00;;
7887;SDS011;3989;48.810;9.208;2023-11-21T05:34:45;1.97;;;1.00;;
7887;SDS011;3989;48.810;9.208;2023-11-21T05:37:12;1.17;;;1.00;;
7887;SDS011;3989;48.810;9.208;2023-11-21T05:39:38;2.40;;;1.20;;
7887;SDS011;3989;48.810;9.208;2023-11-21T05:42:05;1.27;;;1.27;;
7887;SDS011;3989;48.810;9.208;2023-11-21T05:44:34;2.27;;;1.50;;
7887;SDS011;3989;48.810;9.208;2023-11-21T05:47:01;1.43;;;1.10;;
7887;SDS011;3989;48.810;9.208;2023-11-21T05:49:29;1.97;;;0.97;;
7887;SDS011;3989;48.810;9.208;2023-11-21T05:51:56;1.20;;;1.10;;
7887;SDS011;3989;48.810;9.208;2023-11-21T05:54:22;1.80;;;0.90;;
7887;SDS011;3989;48.810;9.208;2023-11-21T05:56:49;1.63;;;1.03;;
7887;SDS011;3989;48.810;9.208;2023-11-21T05:59:16;1.50;;;1.30;;
7887;SDS011;3989;48.810;9.208;2023-11-21T06:01:43;2.93;;;1.47;;
7887;SDS011;3989;48.810;9.208;2023-11-21T06:04:10;2.23;;;0.90;;
7887;SDS011;3989;48.810;9.208;2023-11-21T06:06:39;1.90;;;1.10;;
7887;SDS011;3989;48.810;9.208;2023-11-21T06:09:06;1.93;;;1.10;;
7887;SDS011;3989;48.810;9.208;2023-11-21T06:11:34;1.50;;;1.00;;
7887;SDS011;3989;48.810;9.208;2023-11-21T06:14:01;1.50;;;1.20;;
7887;SDS011;3989;48.810;9.208;2023-11-21T06:16:28;1.80;;;1.03;;
7887;SDS011;3989;48.810;9.208;2023-11-21T06:18:54;2.43;;;1.33;;
7887;SDS011;3989;48.810;9.208;2023-11-21T06:21:21;1.77;;;1.20;;
7887;SDS011;3989;48.810;9.208;2023-11-21T06:23:50;0.80;;;0.80;;
7887;SDS011;3989;48.810;9.208;2023-11-21T06:26:18;0.80;;;0.80;;
7887;SDS011;3989;48.810;9.208;2023-11-21T06:28:45;3.23;;;1.40;;
7887;SDS011;3989;48.810;9.208;2023-11-21T06:31:12;1.23;;;1.13;;
7887;SDS011;3989;48.810;9.208;2023-11-21T06:33:39;1.30;;;1.20;;
7887;SDS011;3989;48.810;9.208;2023-11-21T06:36:06;2.30;;;1.20;;
7887;SDS011;3989;48.810;9.208;2023-11-21T06:38:36;1.70;;;1.03;;
7887;SDS011;3989;48.810;9.208;2023-11-21T06:41:04;1.00;;;1.00;;
7887;SDS011;3989;48.810;9.208;2023-11-21T06:43:32;3.40;;;2.10;;
7887;SDS011;3989;48.810;9.208;2023-11-21T06:45:59;1.00;;;1.00;;
7887;SDS011;3989;48.810;9.208;2023-11-21T06:48:25;1.77;;;1.50;;
7887;SDS011;3989;48.810;9.208;2023-11-21T06:50:52;0.67;;;0.67;;
7887;SDS011;3989;48.810;9.208;2023-11-21T06:53:18;3.50;;;1.07;;
7887;SDS011;3989;48.810;9.208;2023-11-21T06:55:45;0.87;;;0.87;;
7887;SDS011;3989;48.810;9.208;2023-11-21T06:58:13;2.63;;;1.00;;
7887;SDS011;3989;48.810;9.208;2023-11-21T07:00:40;1.60;;;1.10;;
7887;SDS011;3989;48.810;9.208;2023-11-21T07:03:11;0.87;;;0.87;;
7887;SDS011;3989;48.810;9.208;2023-11-21T07:05:38;1.13;;;1.03;;
7887;SDS011;3989;48.810;9.208;2023-11-21T07:08:05;1.73;;;0.87;;
7887;SDS011;3989;48.810;9.208;2023-11-21T07:10:32;0.90;;;0.90;;
7887;SDS011;3989;48.810;9.208;2023-11-21T07:13:00;1.10;;;1.00;;
7887;SDS011;3989;48.810;9.208;2023-11-21T07:15:28;1.50;;;1.43;;
7887;SDS011;3989;48.810;9.208;2023-11-21T07:17:54;4.43;;;3.27;;
7887;SDS011;3989;48.810;9.208;2023-11-21T07:20:21;7.87;;;6.40;;
7887;SDS011;3989;48.810;9.208;2023-11-21T07:22:48;3.37;;;3.17;;
7887;SDS011;3989;48.810;9.208;2023-11-21T07:25:15;1.43;;;1.33;;
7887;SDS011;3989;48.810;9.208;2023-11-21T07:27:41;1.10;;;1.10;;
7887;SDS011;3989;48.810;9.208;2023-11-21T07:30:09;1.87;;;1.40;;
7887;SDS011;3989;48.810;9.208;2023-11-21T07:32:39;1.30;;;1.30;;
7887;SDS011;3989;48.810;9.208;2023-11-21T07:35:06;2.03;;;1.20;;
7887;SDS011;3989;48.810;9.208;2023-11-21T07:37:34;2.33;;;1.60;;
7887;SDS011;3989;48.810;9.208;2023-11-21T07:40:00;1.30;;;1.30;;
7887;SDS011;3989;48.810;9.208;2023-11-21T07:42:28;1.80;;;1.10;;
7887;SDS011;3989;48.810;9.208;2023-11-21T07:44:54;1.30;;;1.20;;
7887;SDS011;3989;48.810;9.208;2023-11-21T07:47:21;1.27;;;1.10;;
7887;SDS011;3989;48.810;9.208;2023-11-21T07:49:50;1.47;;;1.37;;
7887;SDS011;3989;48.810;9.208;2023-11-21T07:52:16;2.27;;;1.50;;
7887;SDS011;3989;48.810;9.208;2023-11-21T07:54:43;1.20;;;1.20;;
7887;SDS011;3989;48.810;9.208;2023-11-21T07:57:10;1.53;;;1.43;;
7887;SDS011;3989;48.810;9.208;2023-11-21T07:59:38;2.23;;;1.57;;
7887;SDS011;3989;48.810;9.208;2023-11-21T08:02:05;1.97;;;1.50;;
7887;SDS011;3989;48.810;9.208;2023-11-21T08:04:32;4.03;;;2.20;;
7887;SDS011;3989;48.810;9.208;2023-11-21T08:07:00;4.30;;;2.83;;
7887;SDS011;3989;48.810;9.208;2023-11-21T08:09:28;2.57;;;2.37;;
7887;SDS011;3989;48.810;9.208;2023-11-21T08:11:55;2.20;;;1.93;;
7887;SDS011;3989;48.810;9.208;2023-11-21T08:14:22;2.63;;;2.43;;
7887;SDS011;3989;48.810;9.208;2023-11-21T08:16:50;2.40;;;2.20;;
7887;SDS011;3989;48.810;9.208;2023-11-21T08:19:17;2.00;;;1.90;;
7887;SDS011;3989;48.810;9.208;2023-11-21T08:21:44;1.77;;;1.63;;
7887;SDS011;3989;48.810;9.208;2023-11-21T08:24:12;1.67;;;1.57;;
7887;SDS011;3989;48.810;9.208;2023-11-21T08:26:39;1.47;;;1.37;;
7887;SDS011;3989;48.810;9.208;2023-11-21T08:29:05;1.50;;;1.40;;
7887;SDS011;3989;48.810;9.208;2023-11-21T08:31:33;1.57;;;1.27;;
7887;SDS011;3989;48.810;9.208;2023-11-21T08:34:00;1.07;;;1.07;;
7887;SDS011;3989;48.810;9.208;2023-11-21T08:36:28;2.30;;;1.10;;
7887;SDS011;3989;48.810;9.208;2023-11-21T08:38:56;1.80;;;1.40;;
7887;SDS011;3989;48.810;9.208;2023-11-21T08:41:24;1.53;;;1.40;;
7887;SDS011;3989;48.810;9.208;2023-11-21T08:43:53;1.97;;;1.30;;
7887;SDS011;3989;48.810;9.208;2023-11-21T08:46:20;1.17;;;1.17;;
7887;SDS011;3989;48.810;9.208;2023-11-21T08:48:47;1.50;;;1.40;;
7887;SDS011;3989;48.810;9.208;2023-11-21T08:51:13;1.87;;;1.37;;
7887;SDS011;3989;48.810;9.208;2023-11-21T08:53:40;1.30;;;1.20;;
7887;SDS011;3989;48.810;9.208;2023-11-21T08:56:08;1.30;;;1.20;;
7887;SDS011;3989;48.810;9.208;2023-11-21T08:58:40;1.60;;;1.50;;
7887;SDS011;3989;48.810;9.208;2023-11-21T09:01:07;1.63;;;1.10;;
7887;SDS011;3989;48.810;9.208;2023-11-21T09:03:33;1.30;;;1.20;;
7887;SDS011;3989;48.810;9.208;2023-11-21T09:06:00;1.77;;;1.67;;
7887;SDS011;3989;48.810;9.208;2023-11-21T09:08:27;1.07;;;1.07;;
7887;SDS011;3989;48.810;9.208;2023-11-21T09:10:54;1.10;;;1.10;;
7887;SDS011;3989;48.810;9.208;2023-11-21T09:13:21;1.17;;;1.13;;
7887;SDS011;3989;48.810;9.208;2023-11-21T09:15:51;1.50;;;1.40;;
7887;SDS011;3989;48.810;9.208;2023-11-21T09:18:18;1.30;;;1.30;;
7887;SDS011;3989;48.810;9.208;2023-11-21T09:20:44;1.20;;;1.20;;
7887;SDS011;3989;48.810;9.208;2023-11-21T09:23:11;2.67;;;1.40;;
7887;SDS011;3989;48.810;9.208;2023-11-21T09:25:38;1.30;;;1.30;;
7887;SDS011;3989;48.810;9.208;2023-11-21T09:28:04;2.67;;;1.60;;
7887;SDS011;3989;48.810;9.208;2023-11-21T09:30:33;1.40;;;1.40;;
7887;SDS011;3989;48.810;9.208;2023-11-21T09:33:01;2.77;;;1.37;;
7887;SDS011;3989;48.810;9.208;2023-11-21T09:35:28;1.40;;;1.40;;
7887;SDS011;3989;48.810;9.208;2023-11-21T09:37:54;2.43;;;1.40;;
7887;SDS011;3989;48.810;9.208;2023-11-21T09:40:21;2.30;;;1.30;;
7887;SDS011;3989;48.810;9.208;2023-11-21T09:42:49;1.83;;;1.50;;
7887;SDS011;3989;48.810;9.208;2023-11-21T09:45:24;1.30;;;1.20;;
7887;SDS011;3989;48.810;9.208;2023-11-21T09:47:52;1.20;;;1.20;;
7887;SDS011;3989;48.810;9.208;2023-11-21T09:50:22;2.57;;;1.60;;
7887;SDS011;3989;48.810;9.208;2023-11-21T09:52:53;1.33;;;1.33;;
7887;SDS011;3989;48.810;9.208;2023-11-21T09:55:22;2.00;;;1.90;;
7887;SDS011;3989;48.810;9.208;2023-11-21T09:57:53;2.37;;;1.47;;
7887;SDS011;3989;48.810;9.208;2023-11-21T10:00:22;2.00;;;1.60;;
7887;SDS011;3989;48.810;9.208;2023-11-21T10:02:49;3.30;;;1.90;;
7887;SDS011;3989;48.810;9.208;2023-11-21T10:05:18;1.90;;;1.80;;
7887;SDS011;3989;48.810;9.208;2023-11-21T10:07:48;1.90;;;1.80;;
7887;SDS011;3989;48.810;9.208;2023-11-21T10:10:17;1.90;;;1.53;;
7887;SDS011;3989;48.810;9.208;2023-11-21T10:12:48;2.53;;;2.20;;
7887;SDS011;3989;48.810;9.208;2023-11-21T10:15:18;4.63;;;1.90;;
7887;SDS011;3989;48.810;9.208;2023-11-21T10:17:48;1.77;;;1.67;;
7887;SDS011;3989;48.810;9.208;2023-11-21T10:20:15;2.13;;;2.03;;
7887;SDS011;3989;48.810;9.208;2023-11-21T10:22:42;1.80;;;1.70;;
7887;SDS011;3989;48.810;9.208;2023-11-21T10:25:11;3.20;;;2.40;;
7887;SDS011;3989;48.810;9.208;2023-11-21T10:27:40;2.77;;;1.53;;
7887;SDS011;3989;48.810;9.208;2023-11-21T10:30:08;1.63;;;1.53;;
7887;SDS011;3989;48.810;9.208;2023-11-21T10:32:37;1.37;;;1.37;;
7887;SDS011;3989;48.810;9.208;2023-11-21T10:35:05;1.40;;;1.30;;
7887;SDS011;3989;48.810;9.208;2023-11-21T10:37:35;2.97;;;1.17;;
7887;SDS011;3989;48.810;9.208;2023-11-21T10:40:01;1.23;;;0.80;;
7887;SDS011;3989;48.810;9.208;2023-11-21T10:42:31;0.80;;;0.80;;
7887;SDS011;3989;48.810;9.208;2023-11-21T10:44:58;0.87;;;0.87;;
7887;SDS011;3989;48.810;9.208;2023-11-21T10:47:25;0.90;;;0.90;;
7887;SDS011;3989;48.810;9.208;2023-11-21T10:49:53;0.73;;;0.70;;
7887;SDS011;3989;48.810;9.208;2023-11-21T10:52:19;0.83;;;0.80;;
7887;SDS011;3989;48.810;9.208;2023-11-21T10:54:46;1.33;;;0.90;;
7887;SDS011;3989;48.810;9.208;2023-11-21T10:57:13;2.30;;;0.83;;
7887;SDS011;3989;48.810;9.208;2023-11-21T10:59:45;0.60;;;0.60;;
7887;SDS011;3989;48.810;9.208;2023-11-21T11:02:16;0.73;;;0.73;;
7887;SDS011;3989;48.810;9.208;2023-11-21T11:04:50;0.70;;;0.70;;
7887;SDS011;3989;48.810;9.208;2023-11-21T11:07:20;1.03;;;0.90;;
7887;SDS011;3989;48.810;9.208;2023-11-21T11:09:49;0.90;;;0.90;;
7887;SDS011;3989;48.810;9.208;2023-11-21T11:12:16;2.43;;;0.90;;
7887;SDS011;3989;48.810;9.208;2023-11-21T11:14:45;1.00;;;1.00;;
7887;SDS011;3989;48.810;9.208;2023-11-21T11:17:13;1.27;;;1.00;;
7887;SDS011;3989;48.810;9.208;2023-11-21T11:19:41;1.00;;;1.00;;
7887;SDS011;3989;48.810;9.208;2023-11-21T11:22:09;1.47;;;1.10;;
7887;SDS011;3989;48.810;9.208;2023-11-21T11:24:58;1.10;;;1.03;;
7887;SDS011;3989;48.810;9.208;2023-11-21T11:27:40;1.20;;;1.20;;
7887;SDS011;3989;48.810;9.208;2023-11-21T11:30:19;1.33;;;1.23;;
7887;SDS011;3989;48.810;9.208;2023-11-21T11:32:58;0.80;;;0.80;;
7887;SDS011;3989;48.810;9.208;2023-11-21T11:35:38;0.90;;;0.90;;
7887;SDS011;3989;48.810;9.208;2023-11-21T11:38:13;1.00;;;1.00;;
7887;SDS011;3989;48.810;9.208;2023-11-21T11:40:40;1.10;;;1.10;;
7887;SDS011;3989;48.810;9.208;2023-11-21T11:43:07;1.40;;;1.30;;
7887;SDS011;3989;48.810;9.208;2023-11-21T11:45:35;1.50;;;1.40;;
7887;SDS011;3989;48.810;9.208;2023-11-21T11:48:06;1.20;;;1.20;;
7887;SDS011;3989;48.810;9.208;2023-11-21T11:50:33;1.27;;;1.27;;
7887;SDS011;3989;48.810;9.208;2023-11-21T11:53:11;1.87;;;1.10;;
7887;SDS011;3989;48.810;9.208;2023-11-21T11:55:39;1.40;;;1.40;;
7887;SDS011;3989;48.810;9.208;2023-11-21T11:58:06;1.67;;;1.57;;
7887;SDS011;3989;48.810;9.208;2023-11-21T12:00:35;1.30;;;1.20;;
7887;SDS011;3989;48.810;9.208;2023-11-21T12:03:06;1.50;;;1.50;;
7887;SDS011;3989;48.810;9.208;2023-11-21T12:05:35;1.17;;;1.10;;
7887;SDS011;3989;48.810;9.208;2023-11-21T12:08:04;0.90;;;0.90;;
7887;SDS011;3989;48.810;9.208;2023-11-21T12:10:33;1.00;;;1.00;;
7887;SDS011;3989;48.810;9.208;2023-11-21T12:13:01;1.20;;;1.20;;
7887;SDS011;3989;48.810;9.208;2023-11-21T12:15:30;1.13;;;1.13;;
7887;SDS011;3989;48.810;9.208;2023-11-21T12:17:58;1.00;;;1.00;;
7887;SDS011;3989;48.810;9.208;2023-11-21T12:20:26;1.10;;;1.10;;
7887;SDS011;3989;48.810;9.208;2023-11-21T12:22:54;1.20;;;1.20;;
7887;SDS011;3989;48.810;9.208;2023-11-21T12:25:22;1.40;;;1.40;;
7887;SDS011;3989;48.810;9.208;2023-11-21T12:27:53;1.10;;;1.10;;
7887;SDS011;3989;48.810;9.208;2023-11-21T12:30:21;1.30;;;1.30;;
7887;SDS011;3989;48.810;9.208;2023-11-21T12:32:49;1.13;;;1.13;;
7887;SDS011;3989;48.810;9.208;2023-11-21T12:35:18;1.30;;;1.30;;
7887;SDS011;3989;48.810;9.208;2023-11-21T12:37:46;1.77;;;1.67;;
7887;SDS011;3989;48.810;9.208;2023-11-21T12:40:14;1.57;;;1.50;;
7887;SDS011;3989;48.810;9.208;2023-11-21T12:42:43;1.97;;;1.87;;
7887;SDS011;3989;48.810;9.208;2023-11-21T12:45:18;2.00;;;1.90;;
7887;SDS011;3989;48.810;9.208;2023-11-21T12:47:46;2.37;;;1.87;;
7887;SDS011;3989;48.810;9.208;2023-11-21T12:50:14;1.87;;;1.87;;
7887;SDS011;3989;48.810;9.208;2023-11-21T12:52:43;2.43;;;1.73;;
7887;SDS011;3989;48.810;9.208;2023-11-21T12:55:15;1.90;;;1.80;;
7887;SDS011;3989;48.810;9.208;2023-11-21T12:57:43;2.07;;;1.80;;
7887;SDS011;3989;48.810;9.208;2023-11-21T13:00:11;1.93;;;1.83;;
7887;SDS011;3989;48.810;9.208;2023-11-21T13:02:51;1.70;;;1.60;;
7887;SDS011;3989;48.810;9.208;2023-11-21T13:05:25;1.87;;;1.77;;
7887;SDS011;3989;48.810;9.208;2023-11-21T13:07:54;3.63;;;1.90;;
7887;SDS011;3989;48.810;9.208;2023-11-21T13:10:23;1.80;;;1.70;;
7887;SDS011;3989;48.810;9.208;2023-11-21T13:12:54;1.70;;;1.70;;
7887;SDS011;3989;48.810;9.208;2023-11-21T13:15:23;2.03;;;1.93;;
7887;SDS011;3989;48.810;9.208;2023-11-21T13:17:50;2.37;;;2.27;;
7887;SDS011;3989;48.810;9.208;2023-11-21T13:20:18;1.83;;;1.73;;
7887;SDS011;3989;48.810;9.208;2023-11-21T13:22:48;1.80;;;1.80;;
7887;SDS011;3989;48.810;9.208;2023-11-21T13:25:18;1.87;;;1.60;;
7887;SDS011;3989;48.810;9.208;2023-11-21T13:27:45;1.90;;;1.80;;
7887;SDS011;3989;48.810;9.208;2023-11-21T13:30:13;1.80;;;1.70;;
7887;SDS011;3989;48.810;9.208;2023-11-21T13:32:44;1.87;;;1.77;;
7887;SDS011;3989;48.810;9.208;2023-11-21T13:35:11;2.07;;;1.83;;
7887;SDS011;3989;48.810;9.208;2023-11-21T13:37:46;2.30;;;2.10;;
7887;SDS011;3989;48.810;9.208;2023-11-21T13:40:18;2.00;;;1.90;;
7887;SDS011;3989;48.810;9.208;2023-11-21T13:42:48;1.97;;;1.87;;
7887;SDS011;3989;48.810;9.208;2023-11-21T13:45:18;3.00;;;2.43;;
7887;SDS011;3989;48.810;9.208;2023-11-21T13:47:45;2.30;;;2.20;;
7887;SDS011;3989;48.810;9.208;2023-11-21T13:50:12;2.53;;;2.33;;
7887;SDS011;3989;48.810;9.208;2023-11-21T13:52:47;2.63;;;2.43;;
7887;SDS011;3989;48.810;9.208;2023-11-21T13:55:14;3.30;;;3.10;;
7887;SDS011;3989;48.810;9.208;2023-11-21T13:57:43;3.27;;;2.97;;
7887;SDS011;3989;48.810;9.208;2023-11-21T14:00:13;3.37;;;3.07;;
7887;SDS011;3989;48.810;9.208;2023-11-21T14:03:01;5.70;;;3.97;;
7887;SDS011;3989;48.810;9.208;2023-11-21T14:05:31;3.20;;;2.90;;
7887;SDS011;3989;48.810;9.208;2023-11-21T14:07:59;3.57;;;2.73;;
7887;SDS011;3989;48.810;9.208;2023-11-21T14:10:29;2.80;;;2.60;;
7887;SDS011;3989;48.810;9.208;2023-11-21T14:13:03;2.60;;;2.50;;
7887;SDS011;3989;48.810;9.208;2023-11-21T14:15:31;2.70;;;2.50;;
7887;SDS011;3989;48.810;9.208;2023-11-21T14:17:59;2.40;;;2.30;;
7887;SDS011;3989;48.810;9.208;2023-11-21T14:20:27;2.60;;;2.50;;
7887;SDS011;3989;48.810;9.208;2023-11-21T14:22:55;2.50;;;2.30;;
7887;SDS011;3989;48.810;9.208;2023-11-21T14:25:22;2.20;;;1.93;;
7887;SDS011;3989;48.810;9.208;2023-11-21T14:27:49;1.90;;;1.80;;
7887;SDS011;3989;48.810;9.208;2023-11-21T14:30:17;2.20;;;2.10;;
7887;SDS011;3989;48.810;9.208;2023-11-21T14:32:47;1.80;;;1.70;;
7887;SDS011;3989;48.810;9.208;2023-11-21T14:35:14;2.07;;;1.87;;
7887;SDS011;3989;48.810;9.208;2023-11-21T14:37:55;1.80;;;1.70;;
7887;SDS011;3989;48.810;9.208;2023-11-21T14:40:23;1.47;;;1.47;;
7887;SDS011;3989;48.810;9.208;2023-11-21T14:42:50;3.53;;;1.60;;
7887;SDS011;3989;48.810;9.208;2023-11-21T14:45:23;1.33;;;1.30;;
7887;SDS011;3989;48.810;9.208;2023-11-21T14:47:51;1.90;;;1.80;;
7887;SDS011;3989;48.810;9.208;2023-11-21T14:50:27;1.70;;;1.60;;
7887;SDS011;3989;48.810;9.208;2023-11-21T14:53:17;1.90;;;1.80;;
7887;SDS011;3989;48.810;9.208;2023-11-21T14:56:04;1.50;;;1.50;;
7887;SDS011;3989;48.810;9.208;2023-11-21T14:58:32;1.67;;;1.60;;
7887;SDS011;3989;48.810;9.208;2023-11-21T15:01:01;2.10;;;2.00;;
7887;SDS011;3989;48.810;9.208;2023-11-21T15:03:28;1.50;;;1.50;;
7887;SDS011;3989;48.810;9.208;2023-11-21T15:06:15;1.60;;;1.60;;
7887;SDS011;3989;48.810;9.208;2023-11-21T15:08:55;2.50;;;2.00;;
7887;SDS011;3989;48.810;9.208;2023-11-21T15:11:45;2.20;;;2.00;;
7887;SDS011;3989;48.810;9.208;2023-11-21T15:14:12;3.00;;;2.17;;
7887;SDS011;3989;48.810;9.208;2023-11-21T15:16:46;2.10;;;2.00;;
7887;SDS011;3989;48.810;9.208;2023-11-21T15:19:16;2.03;;;1.93;;
7887;SDS011;3989;48.810;9.208;2023-11-21T15:21:49;2.43;;;2.33;;
7887;SDS011;3989;48.810;9.208;2023-11-21T15:24:16;2.30;;;2.20;;
7887;SDS011;3989;48.810;9.208;2023-11-21T15:26:43;2.67;;;2.43;;
7887;SDS011;3989;48.810;9.208;2023-11-21T15:29:09;3.10;;;2.90;;
7887;SDS011;3989;48.810;9.208;2023-11-21T15:31:37;2.97;;;2.77;;
7887;SDS011;3989;48.810;9.208;2023-11-21T15:34:10;3.33;;;3.13;;
7887;SDS011;3989;48.810;9.208;2023-11-21T15:36:37;2.87;;;2.70;;
7887;SDS011;3989;48.810;9.208;2023-11-21T15:39:04;2.87;;;2.70;;
7887;SDS011;3989;48.810;9.208;2023-11-21T15:41:32;3.43;;;3.13;;
7887;SDS011;3989;48.810;9.208;2023-11-21T15:43:59;3.03;;;2.83;;
7887;SDS011;3989;48.810;9.208;2023-11-21T15:46:25;3.50;;;3.17;;
7887;SDS011;3989;48.810;9.208;2023-11-21T15:48:52;3.43;;;3.20;;
7887;SDS011;3989;48.810;9.208;2023-11-21T15:51:20;3.80;;;3.50;;
7887;SDS011;3989;48.810;9.208;2023-11-21T15:53:47;3.70;;;3.47;;
7887;SDS011;3989;48.810;9.208;2023-11-21T15:56:14;4.10;;;3.77;;
7887;SDS011;3989;48.810;9.208;2023-11-21T15:58:41;4.40;;;4.00;;